Broadmoor, Louisiana
Current Conditions -  °F | °C
As of 8:35 PM on Friday 31 Oct 2014 (Local Time) from KVSH Reporting Station
Clear Clear  
Wind Chill: 66°   Ceiling: Unl
Heat Index: 66°   Visibility: 10mi
Dew Point: 45°   Wind: 10mph
Humidity: 46%   Direction: 360°N
Pressure: 30.13"   Gusts: 20mph
Location:  29.9521°N, 90.1034°W
Report Text: KVSH 010135Z AUTO 36009G17KT 320V040 10SM CLR 19/07 A3013 RMK AO1
Loading
Personal Weather Stations






























Interactive Weather Map
Tropical Storm Tracking
New forecast layout! Learn more

10-Day Weather Forecast

Advertisements
Track Severe Weather on mobile